createdAt,value
2023-02-15T00:01:42.517Z,98527.47
2023-02-15T00:04:11.499Z,98515.09
2023-02-15T00:06:40.451Z,98513.19
2023-02-15T00:09:08.084Z,98511.50
2023-02-15T00:11:41.546Z,98511.94
2023-02-15T00:14:10.225Z,98509.47
2023-02-15T00:16:38.669Z,98507.50
2023-02-15T00:19:06.720Z,98506.38
2023-02-15T00:21:35.208Z,98501.81
2023-02-15T00:24:05.546Z,98510.09
2023-02-15T00:26:34.120Z,98506.19
2023-02-15T00:29:01.720Z,98506.75
2023-02-15T00:31:32.612Z,98505.16
2023-02-15T00:34:03.550Z,98496.94
2023-02-15T00:36:31.224Z,98501.97
2023-02-15T00:38:58.821Z,98497.00
2023-02-15T00:41:27.823Z,98502.63
2023-02-15T00:43:55.359Z,98492.81
2023-02-15T00:46:22.916Z,98491.19
2023-02-15T00:48:50.533Z,98488.94
2023-02-15T00:51:18.292Z,98483.69
2023-02-15T00:53:46.403Z,98480.44
2023-02-15T00:56:14.123Z,98486.41
2023-02-15T00:58:43.247Z,98475.25
2023-02-15T01:01:12.532Z,98480.78
2023-02-15T01:03:42.425Z,98481.25
2023-02-15T01:06:10.906Z,98478.97
2023-02-15T01:08:38.606Z,98482.19
2023-02-15T01:11:06.786Z,98481.41
2023-02-15T01:13:34.501Z,98473.91
2023-02-15T01:16:04.162Z,98477.63
2023-02-15T01:18:32.040Z,98473.63
2023-02-15T01:20:59.791Z,98468.03
2023-02-15T01:23:27.330Z,98473.25
2023-02-15T01:25:54.853Z,98473.00
2023-02-15T01:28:22.390Z,98464.25
2023-02-15T01:30:50.044Z,98462.72
2023-02-15T01:33:19.399Z,98461.56
2023-02-15T01:35:47.577Z,98457.53
2023-02-15T01:38:17.116Z,98452.72
2023-02-15T01:40:44.665Z,98455.97
2023-02-15T01:43:13.348Z,98448.09
2023-02-15T01:45:44.096Z,98451.34
2023-02-15T01:48:21.820Z,98450.84
2023-02-15T01:50:52.222Z,98443.97
2023-02-15T01:53:23.425Z,98444.31
2023-02-15T01:55:53.939Z,98433.44
2023-02-15T01:58:21.876Z,98439.13
2023-02-15T02:00:49.425Z,98433.03
2023-02-15T02:03:17.040Z,98434.22
2023-02-15T02:05:45.909Z,98428.13
2023-02-15T02:08:14.141Z,98413.66
2023-02-15T02:10:41.936Z,98426.56
2023-02-15T02:13:09.488Z,98418.09
2023-02-15T02:15:43.028Z,98420.13
2023-02-15T02:18:23.321Z,98410.72
2023-02-15T02:21:14.840Z,98384.91
2023-02-15T02:23:51.557Z,98410.66
2023-02-15T02:26:51.193Z,98409.66
2023-02-15T02:29:40.352Z,98410.72
2023-02-15T02:32:43.846Z,98404.75
2023-02-15T02:35:18.097Z,98402.13
2023-02-15T02:37:52.693Z,98408.28
2023-02-15T02:40:22.777Z,98399.38
2023-02-15T02:42:53.150Z,98398.31
2023-02-15T02:45:24.261Z,98393.03
2023-02-15T02:47:54.837Z,98393.63
2023-02-15T02:50:27.771Z,98387.03
2023-02-15T02:52:57.186Z,98389.28
2023-02-15T02:55:28.618Z,98381.69
2023-02-15T02:57:59.937Z,98378.25
2023-02-15T03:00:31.256Z,98361.91
2023-02-15T03:03:05.841Z,98386.69
2023-02-15T03:05:36.690Z,98385.63
2023-02-15T03:08:07.155Z,98382.81
2023-02-15T03:10:36.909Z,98386.69
2023-02-15T03:13:04.930Z,98383.19
2023-02-15T03:15:49.160Z,98376.50
2023-02-15T03:18:24.312Z,98366.97
2023-02-15T03:20:54.298Z,98364.59
2023-02-15T03:23:24.246Z,98376.19
2023-02-15T03:25:54.420Z,98371.34
2023-02-15T03:28:26.673Z,98370.34
2023-02-15T03:30:56.761Z,98373.44
2023-02-15T03:33:25.228Z,98365.03
2023-02-15T03:35:57.873Z,98372.28
2023-02-15T03:38:29.796Z,98375.66
2023-02-15T03:41:13.684Z,98370.28
2023-02-15T03:43:46.853Z,98373.16
2023-02-15T03:46:17.612Z,98383.81
2023-02-15T03:48:50.020Z,98371.66
2023-02-15T03:51:43.443Z,98372.53
2023-02-15T03:54:12.643Z,98373.16
2023-02-15T03:56:42.988Z,98357.44
2023-02-15T03:59:28.094Z,98371.03
2023-02-15T04:02:02.260Z,98364.25
2023-02-15T04:04:34.698Z,98367.69
2023-02-15T04:07:04.653Z,98364.66
2023-02-15T04:09:49.976Z,98367.97
2023-02-15T04:12:17.513Z,98364.16
2023-02-15T04:15:02.586Z,98362.00
2023-02-15T04:17:30.297Z,98371.78
2023-02-15T04:20:15.504Z,98371.38
2023-02-15T04:23:02.296Z,98371.25
2023-02-15T04:25:33.353Z,98375.31
2023-02-15T04:28:00.893Z,98380.28
2023-02-15T04:30:28.502Z,98383.28
2023-02-15T04:32:58.064Z,98369.31
2023-02-15T04:35:26.639Z,98383.94
2023-02-15T04:37:56.964Z,98381.00
2023-02-15T04:40:24.553Z,98382.00
2023-02-15T04:42:52.302Z,98378.31
2023-02-15T04:45:19.864Z,98377.84
2023-02-15T04:47:47.417Z,98381.19
2023-02-15T04:50:14.959Z,98379.94
2023-02-15T04:52:42.511Z,98382.59
2023-02-15T04:55:11.357Z,98387.16
2023-02-15T04:57:38.887Z,98383.72
2023-02-15T05:00:09.457Z,98388.38
2023-02-15T05:02:37.001Z,98387.06
2023-02-15T05:05:04.646Z,98372.84
2023-02-15T05:07:32.204Z,98386.31
2023-02-15T05:09:59.919Z,98389.78
2023-02-15T05:12:28.781Z,98386.03
2023-02-15T05:14:56.302Z,98377.09
2023-02-15T05:17:23.846Z,98375.09
2023-02-15T05:19:51.412Z,98380.75
2023-02-15T05:22:19.093Z,98378.44
2023-02-15T05:25:04.547Z,98376.53
2023-02-15T05:27:51.184Z,98374.03
2023-02-15T05:30:18.869Z,98370.72
2023-02-15T05:32:46.699Z,98376.00
2023-02-15T05:35:15.758Z,98375.09
2023-02-15T05:37:43.548Z,98373.28
2023-02-15T05:40:12.316Z,98366.28
2023-02-15T05:42:41.409Z,98369.41
2023-02-15T05:45:09.425Z,98367.94
2023-02-15T05:47:36.946Z,98380.44
2023-02-15T05:50:04.797Z,98386.72
2023-02-15T05:52:32.315Z,98381.53
2023-02-15T05:55:01.207Z,98384.53
2023-02-15T05:57:28.899Z,98384.66
2023-02-15T05:59:57.888Z,98388.31
2023-02-15T06:02:25.492Z,98394.00
2023-02-15T06:04:53.043Z,98395.53
2023-02-15T06:07:20.737Z,98392.97
2023-02-15T06:09:48.251Z,98397.22
2023-02-15T06:12:16.102Z,98403.09
2023-02-15T06:14:43.624Z,98410.50
2023-02-15T06:17:12.968Z,98413.59
2023-02-15T06:19:40.517Z,98413.13
2023-02-15T06:22:08.439Z,98413.00
2023-02-15T06:24:36.040Z,98421.56
2023-02-15T06:27:03.647Z,98415.91
2023-02-15T06:29:31.168Z,98406.72
2023-02-15T06:31:59.114Z,98404.13
2023-02-15T06:34:28.113Z,98404.75
2023-02-15T06:36:55.609Z,98397.53
2023-02-15T06:39:23.240Z,98409.88
2023-02-15T06:41:51.016Z,98410.72
2023-02-15T06:44:18.701Z,98411.22
2023-02-15T06:46:46.279Z,98409.00
2023-02-15T06:49:14.466Z,98408.72
2023-02-15T06:51:43.378Z,98406.50
2023-02-15T06:54:11.037Z,98415.72
2023-02-15T06:56:39.609Z,98399.97
2023-02-15T06:59:07.157Z,98418.50
2023-02-15T07:01:35.013Z,98415.38
2023-02-15T07:04:02.581Z,98409.78
2023-02-15T07:06:33.077Z,98410.50
2023-02-15T07:09:02.267Z,98402.16
2023-02-15T07:11:47.782Z,98408.84
2023-02-15T07:14:15.518Z,98400.97
2023-02-15T07:16:43.142Z,98403.94
2023-02-15T07:19:11.280Z,98396.16
2023-02-15T07:21:38.804Z,98391.72
2023-02-15T07:24:08.666Z,98384.16
2023-02-15T07:26:36.193Z,98377.91
2023-02-15T07:29:03.766Z,98382.66
2023-02-15T07:31:31.610Z,98380.06
2023-02-15T07:33:59.214Z,98369.78
2023-02-15T07:36:26.736Z,98370.28
2023-02-15T07:38:54.291Z,98373.78
2023-02-15T07:41:24.519Z,98372.28
2023-02-15T07:43:52.028Z,98370.69
2023-02-15T07:46:20.991Z,98377.75
2023-02-15T07:48:48.624Z,98378.00
2023-02-15T07:51:20.357Z,98361.44
2023-02-15T07:53:48.077Z,98381.00
2023-02-15T07:56:16.572Z,98383.28
2023-02-15T07:58:56.518Z,98383.88
2023-02-15T08:01:26.256Z,98375.75
2023-02-15T08:03:54.424Z,98374.50
2023-02-15T08:06:22.491Z,98369.22
2023-02-15T08:08:50.159Z,98373.44
2023-02-15T08:11:30.135Z,98359.31
2023-02-15T08:14:00.973Z,98371.13
2023-02-15T08:16:33.926Z,98374.06
2023-02-15T08:19:03.938Z,98381.41
2023-02-15T08:21:31.979Z,98377.78
2023-02-15T08:24:00.147Z,98374.19
2023-02-15T08:26:29.034Z,98376.03
2023-02-15T08:28:56.920Z,98375.00
2023-02-15T08:31:26.342Z,98364.09
2023-02-15T08:33:55.621Z,98372.66
2023-02-15T08:36:25.401Z,98366.34
2023-02-15T08:38:53.325Z,98370.06
2023-02-15T08:41:22.962Z,98365.41
2023-02-15T08:43:53.001Z,98368.50
2023-02-15T08:46:20.625Z,98369.94
2023-02-15T08:48:49.523Z,98371.88
2023-02-15T08:51:18.571Z,98370.88
2023-02-15T08:53:49.979Z,98370.13
2023-02-15T08:56:18.504Z,98379.44
2023-02-15T08:58:46.353Z,98378.03
2023-02-15T09:01:18.777Z,98374.88
2023-02-15T09:03:47.481Z,98369.63
2023-02-15T09:06:16.790Z,98370.59
2023-02-15T09:08:44.598Z,98375.53
2023-02-15T09:11:13.588Z,98376.19
2023-02-15T09:13:41.811Z,98379.59
2023-02-15T09:16:11.365Z,98363.78
2023-02-15T09:18:40.666Z,98373.78
2023-02-15T09:21:10.474Z,98374.63
2023-02-15T09:23:39.426Z,98365.31
2023-02-15T09:26:08.867Z,98368.38
2023-02-15T09:28:36.546Z,98368.31
2023-02-15T09:31:11.924Z,98370.50
2023-02-15T09:33:41.098Z,98372.91
2023-02-15T09:36:17.095Z,98369.91
2023-02-15T09:38:46.623Z,98373.25
2023-02-15T09:41:25.812Z,98365.41
2023-02-15T09:44:00.120Z,98372.84
2023-02-15T09:46:38.378Z,98370.34
2023-02-15T09:49:12.603Z,98371.06
2023-02-15T09:52:00.914Z,98373.09
2023-02-15T09:54:39.386Z,98372.19
2023-02-15T09:57:12.147Z,98376.41
2023-02-15T09:59:46.636Z,98376.78
2023-02-15T10:02:25.733Z,98367.16
2023-02-15T10:05:02.851Z,98374.78
2023-02-15T10:07:48.738Z,98378.53
2023-02-15T10:10:22.323Z,98372.81
2023-02-15T10:13:11.090Z,98374.66
2023-02-15T10:15:53.046Z,98379.84
2023-02-15T10:18:37.242Z,98388.47
2023-02-15T10:21:11.096Z,98378.03
2023-02-15T10:23:48.472Z,98385.44
2023-02-15T10:26:20.472Z,98377.25
2023-02-15T10:28:50.579Z,98373.59
2023-02-15T10:31:26.983Z,98379.63
2023-02-15T10:34:05.104Z,98371.22
2023-02-15T10:36:43.571Z,98366.84
2023-02-15T10:39:16.860Z,98367.84
2023-02-15T10:41:50.043Z,98361.03
2023-02-15T10:44:30.767Z,98371.66
2023-02-15T10:47:11.429Z,98373.50
2023-02-15T10:49:50.519Z,98359.44
2023-02-15T10:52:30.238Z,98357.81
2023-02-15T10:55:05.545Z,98360.28
2023-02-15T10:57:44.116Z,98355.53
2023-02-15T11:00:15.542Z,98336.28
2023-02-15T11:03:01.797Z,98343.78
2023-02-15T11:05:37.749Z,98349.81
2023-02-15T11:08:09.429Z,98342.19
2023-02-15T11:10:40.051Z,98346.53
2023-02-15T11:13:11.821Z,98330.94
2023-02-15T11:15:42.027Z,98310.38
2023-02-15T11:18:14.120Z,98321.75
2023-02-15T11:20:54.827Z,98318.00
2023-02-15T11:23:22.952Z,98319.78
2023-02-15T11:25:56.817Z,98317.47
2023-02-15T11:28:30.032Z,98309.03
2023-02-15T11:30:59.179Z,98309.50
2023-02-15T11:33:29.886Z,98310.59
2023-02-15T11:36:01.662Z,98301.13
2023-02-15T11:38:31.832Z,98296.84
2023-02-15T11:41:02.390Z,98288.72
2023-02-15T11:43:35.198Z,98280.78
2023-02-15T11:46:02.894Z,98277.28
2023-02-15T11:48:31.884Z,98276.34
2023-02-15T11:51:00.049Z,98279.13
2023-02-15T11:53:30.430Z,98275.19
2023-02-15T11:55:58.111Z,98263.09
2023-02-15T11:58:32.045Z,98267.69
2023-02-15T12:01:03.843Z,98264.59
2023-02-15T12:03:39.946Z,98269.06
2023-02-15T12:06:07.712Z,98268.44
2023-02-15T12:08:40.208Z,98267.25
2023-02-15T12:11:13.343Z,98258.22
2023-02-15T12:13:56.160Z,98253.00
2023-02-15T12:16:23.952Z,98255.63
2023-02-15T12:18:52.544Z,98254.88
2023-02-15T12:21:27.935Z,98246.56
2023-02-15T12:23:58.037Z,98247.75
2023-02-15T12:26:27.184Z,98241.06
2023-02-15T12:28:58.957Z,98241.28
2023-02-15T12:31:29.462Z,98237.25
2023-02-15T12:33:59.114Z,98243.97
2023-02-15T12:36:28.946Z,98243.53
2023-02-15T12:39:06.133Z,98242.13
2023-02-15T12:41:34.331Z,98243.47
2023-02-15T12:44:14.272Z,98234.16
2023-02-15T12:46:42.144Z,98235.09
2023-02-15T12:49:21.766Z,98227.78
2023-02-15T12:51:51.972Z,98234.31
2023-02-15T12:54:30.014Z,98227.28
2023-02-15T12:56:59.021Z,98218.97
2023-02-15T12:59:28.145Z,98234.22
2023-02-15T13:01:55.881Z,98227.19
2023-02-15T13:04:26.765Z,98220.81
2023-02-15T13:06:55.782Z,98215.38
2023-02-15T13:09:30.920Z,98213.59
2023-02-15T13:11:58.777Z,98206.47
2023-02-15T13:14:33.004Z,98210.41
2023-02-15T13:17:03.260Z,98198.56
2023-02-15T13:19:33.857Z,98204.19
2023-02-15T13:22:04.904Z,98204.69
2023-02-15T13:24:35.987Z,98198.72
2023-02-15T13:27:15.119Z,98193.38
2023-02-15T13:29:47.304Z,98202.59
2023-02-15T13:32:26.055Z,98192.88
2023-02-15T13:34:58.170Z,98200.94
2023-02-15T13:37:44.691Z,98207.56
2023-02-15T13:40:16.558Z,98213.88
2023-02-15T13:42:48.596Z,98209.72
2023-02-15T13:45:34.467Z,98206.53
2023-02-15T13:48:08.725Z,98201.84
2023-02-15T13:50:54.816Z,98204.38
2023-02-15T13:53:53.977Z,98199.00
2023-02-15T13:56:26.183Z,98197.56
2023-02-15T13:59:35.330Z,98195.66
2023-02-15T14:02:22.706Z,98189.19
2023-02-15T14:05:00.060Z,98176.50
2023-02-15T14:07:47.472Z,98185.25
2023-02-15T14:10:27.145Z,98184.78
2023-02-15T14:13:06.388Z,98186.59
2023-02-15T14:15:37.998Z,98184.72
2023-02-15T14:18:15.229Z,98182.88
2023-02-15T14:20:51.117Z,98188.09
2023-02-15T14:23:30.565Z,98188.59
2023-02-15T14:26:01.590Z,98169.88
2023-02-15T14:28:35.986Z,98183.53
2023-02-15T14:31:05.495Z,98183.22
2023-02-15T14:33:37.163Z,98192.63
2023-02-15T14:36:07.524Z,98186.09
2023-02-15T14:38:46.528Z,98184.81
2023-02-15T14:41:15.735Z,98185.16
2023-02-15T14:43:50.097Z,98175.19
2023-02-15T14:46:24.120Z,98187.38
2023-02-15T14:48:54.471Z,98191.81
2023-02-15T14:51:57.798Z,98193.69
2023-02-15T14:55:02.723Z,98199.38
2023-02-15T14:57:35.388Z,98185.25
2023-02-15T15:00:29.665Z,98193.69
2023-02-15T15:02:57.294Z,98194.22
2023-02-15T15:05:33.606Z,98200.19
2023-02-15T15:08:01.916Z,98195.75
2023-02-15T15:10:42.062Z,98189.66
2023-02-15T15:13:42.334Z,98192.56
2023-02-15T15:16:31.747Z,98187.66
2023-02-15T15:19:00.112Z,98193.63
2023-02-15T15:21:58.658Z,98194.63
2023-02-15T15:24:48.914Z,98187.63
2023-02-15T15:27:39.307Z,98192.72
2023-02-15T15:31:00.954Z,98203.59
2023-02-15T15:33:53.001Z,98195.19
2023-02-15T15:36:47.160Z,98192.50
2023-02-15T15:39:27.573Z,98197.84
2023-02-15T15:42:00.015Z,98190.81
2023-02-15T15:44:54.818Z,98186.38
2023-02-15T15:47:31.148Z,98195.59
2023-02-15T15:49:59.574Z,98188.88
2023-02-15T15:52:28.285Z,98191.13
2023-02-15T15:54:59.834Z,98196.13
2023-02-15T15:57:30.885Z,98188.47
2023-02-15T15:59:59.891Z,98181.63
2023-02-15T16:02:28.279Z,98191.47
2023-02-15T16:04:56.242Z,98181.44
2023-02-15T16:07:26.403Z,98181.38
2023-02-15T16:10:00.209Z,98175.09
2023-02-15T16:12:29.496Z,98183.34
2023-02-15T16:14:57.918Z,98181.16
2023-02-15T16:17:27.950Z,98184.97
2023-02-15T16:20:01.063Z,98180.38
2023-02-15T16:22:29.739Z,98182.84
2023-02-15T16:25:22.768Z,98175.94
2023-02-15T16:27:51.512Z,98180.06
2023-02-15T16:30:28.692Z,98169.91
2023-02-15T16:32:59.635Z,98172.50
2023-02-15T16:35:27.182Z,98178.63
2023-02-15T16:37:54.861Z,98174.50
2023-02-15T16:40:41.850Z,98176.94
2023-02-15T16:43:16.225Z,98182.75
2023-02-15T16:45:44.175Z,98190.47
2023-02-15T16:48:18.069Z,98201.53
2023-02-15T16:50:51.416Z,98191.53
2023-02-15T16:53:22.461Z,98198.09
2023-02-15T16:55:54.220Z,98197.25
2023-02-15T16:58:27.852Z,98197.34
2023-02-15T17:00:58.726Z,98198.47
2023-02-15T17:03:26.934Z,98195.72
2023-02-15T17:05:56.416Z,98181.53
2023-02-15T17:08:29.276Z,98195.00
2023-02-15T17:11:16.551Z,98190.13
2023-02-15T17:14:15.146Z,98186.09
2023-02-15T17:16:45.432Z,98206.91
2023-02-15T17:19:17.362Z,98208.31
2023-02-15T17:21:50.092Z,98198.84
2023-02-15T17:24:19.084Z,98198.84
2023-02-15T17:26:51.934Z,98188.22
2023-02-15T17:29:25.666Z,98210.97
2023-02-15T17:31:53.967Z,98221.59
2023-02-15T17:34:43.578Z,98213.09
2023-02-15T17:37:12.561Z,98219.81
2023-02-15T17:39:41.305Z,98212.03
2023-02-15T17:42:10.195Z,98210.56
2023-02-15T17:44:37.696Z,98203.19
2023-02-15T17:47:05.594Z,98205.06
2023-02-15T17:49:34.955Z,98212.38
2023-02-15T17:52:03.157Z,98213.22
2023-02-15T17:54:48.528Z,98213.16
2023-02-15T17:57:17.799Z,98219.41
2023-02-15T18:00:03.057Z,98216.94
2023-02-15T18:02:51.458Z,98223.81
2023-02-15T18:05:36.646Z,98219.41
2023-02-15T18:08:22.358Z,98226.25
2023-02-15T18:11:07.777Z,98218.19
2023-02-15T18:13:36.634Z,98222.81
2023-02-15T18:16:04.511Z,98218.13
2023-02-15T18:18:32.238Z,98222.50
2023-02-15T18:20:59.736Z,98224.06
2023-02-15T18:23:27.381Z,98225.00
2023-02-15T18:25:54.890Z,98221.84
2023-02-15T18:28:22.773Z,98230.44
2023-02-15T18:30:51.767Z,98232.22
2023-02-15T18:33:29.931Z,98223.81
2023-02-15T18:35:57.497Z,98235.00
2023-02-15T18:38:25.400Z,98236.69
2023-02-15T18:40:52.897Z,98234.34
2023-02-15T18:43:20.467Z,98229.34
2023-02-15T18:45:48.208Z,98228.78
2023-02-15T18:48:17.350Z,98226.00
2023-02-15T18:50:44.901Z,98223.41
2023-02-15T18:53:16.768Z,98225.03
2023-02-15T18:55:44.364Z,98228.59
2023-02-15T18:58:20.892Z,98239.91
2023-02-15T19:00:49.914Z,98226.34
2023-02-15T19:03:18.927Z,98228.72
2023-02-15T19:05:47.777Z,98234.06
2023-02-15T19:08:19.034Z,98238.38
2023-02-15T19:10:47.027Z,98234.50
2023-02-15T19:13:15.102Z,98229.44
2023-02-15T19:15:42.820Z,98236.03
2023-02-15T19:18:10.728Z,98242.31
2023-02-15T19:20:42.105Z,98243.09
2023-02-15T19:23:14.163Z,98245.41
2023-02-15T19:25:42.508Z,98232.91
2023-02-15T19:28:16.235Z,98232.88
2023-02-15T19:30:43.814Z,98224.13
2023-02-15T19:33:17.528Z,98226.00
2023-02-15T19:35:47.973Z,98228.31
2023-02-15T19:38:19.234Z,98222.97
2023-02-15T19:40:47.107Z,98217.16
2023-02-15T19:43:17.590Z,98216.13
2023-02-15T19:45:45.734Z,98203.31
2023-02-15T19:48:14.704Z,98218.91
2023-02-15T19:50:44.055Z,98207.22
2023-02-15T19:53:22.098Z,98221.78
2023-02-15T19:55:50.269Z,98219.75
2023-02-15T19:58:19.666Z,98224.16
2023-02-15T20:00:48.871Z,98222.97
2023-02-15T20:03:17.938Z,98226.03
2023-02-15T20:05:45.825Z,98222.53
2023-02-15T20:08:19.387Z,98213.75
2023-02-15T20:10:47.010Z,98213.78
2023-02-15T20:13:16.337Z,98203.22
2023-02-15T20:15:44.823Z,98197.31
2023-02-15T20:18:13.275Z,98204.41
2023-02-15T20:20:43.029Z,98199.16
2023-02-15T20:23:20.349Z,98212.59
2023-02-15T20:25:47.890Z,98201.13
2023-02-15T20:28:18.092Z,98201.56
2023-02-15T20:30:45.951Z,98202.25
2023-02-15T20:33:14.155Z,98203.16
2023-02-15T20:35:42.766Z,98204.06
2023-02-15T20:38:16.720Z,98190.06
2023-02-15T20:41:06.711Z,98196.84
2023-02-15T20:43:35.069Z,98203.78
2023-02-15T20:46:03.332Z,98199.03
2023-02-15T20:48:31.203Z,98202.03
2023-02-15T20:50:59.456Z,98195.66
2023-02-15T20:53:27.909Z,98191.59
2023-02-15T20:55:56.966Z,98199.31
2023-02-15T20:58:27.618Z,98192.16
2023-02-15T21:00:55.879Z,98201.72
2023-02-15T21:03:26.392Z,98190.91
2023-02-15T21:05:54.030Z,98193.56
2023-02-15T21:08:23.225Z,98194.84
2023-02-15T21:10:53.074Z,98187.19
2023-02-15T21:13:24.512Z,98188.59
2023-02-15T21:15:53.652Z,98184.41
2023-02-15T21:18:23.679Z,98191.47
2023-02-15T21:20:53.304Z,98183.63
2023-02-15T21:23:22.563Z,98186.16
2023-02-15T21:25:50.261Z,98185.00
2023-02-15T21:28:20.224Z,98179.34
2023-02-15T21:30:50.776Z,98186.84
2023-02-15T21:33:18.952Z,98192.16
2023-02-15T21:35:48.886Z,98186.50
2023-02-15T21:38:18.212Z,98188.19
2023-02-15T21:40:46.205Z,98188.75
2023-02-15T21:43:33.365Z,98175.28
2023-02-15T21:46:29.844Z,98171.53
2023-02-15T21:48:57.361Z,98175.44
2023-02-15T21:51:42.649Z,98173.84
2023-02-15T21:54:12.702Z,98171.31
2023-02-15T21:56:41.673Z,98176.44
2023-02-15T21:59:11.971Z,98164.88
2023-02-15T22:01:46.157Z,98169.63
2023-02-15T22:04:14.864Z,98177.88
2023-02-15T22:06:42.792Z,98176.81
2023-02-15T22:09:16.211Z,98171.41
2023-02-15T22:11:44.031Z,98171.53
2023-02-15T22:14:38.113Z,98172.97
2023-02-15T22:17:15.907Z,98170.75
2023-02-15T22:19:44.441Z,98162.72
2023-02-15T22:22:12.789Z,98167.66
2023-02-15T22:24:41.761Z,98172.38
2023-02-15T22:27:18.304Z,98165.16
2023-02-15T22:29:46.025Z,98166.56
2023-02-15T22:32:18.719Z,98160.13
2023-02-15T22:34:47.099Z,98161.66
2023-02-15T22:37:14.823Z,98158.06
2023-02-15T22:39:42.996Z,98166.13
2023-02-15T22:42:20.138Z,98170.63
2023-02-15T22:44:48.466Z,98160.94
2023-02-15T22:47:21.139Z,98166.25
2023-02-15T22:49:48.721Z,98168.94
2023-02-15T22:52:16.783Z,98157.78
2023-02-15T22:54:44.307Z,98174.13
2023-02-15T22:57:17.868Z,98168.81
2023-02-15T22:59:45.597Z,98173.84
2023-02-15T23:02:15.845Z,98171.66
2023-02-15T23:04:44.748Z,98172.66
2023-02-15T23:07:14.941Z,98161.72
2023-02-15T23:09:42.631Z,98178.75
2023-02-15T23:12:24.941Z,98170.25
2023-02-15T23:14:53.002Z,98176.34
2023-02-15T23:17:20.894Z,98179.41
2023-02-15T23:19:49.808Z,98176.44
2023-02-15T23:22:18.419Z,98172.22
2023-02-15T23:24:48.483Z,98172.94
2023-02-15T23:27:35.111Z,98181.53
2023-02-15T23:30:03.964Z,98176.50
2023-02-15T23:32:32.517Z,98174.47
2023-02-15T23:35:01.830Z,98172.94
2023-02-15T23:37:29.483Z,98177.06
2023-02-15T23:40:14.831Z,98176.81
2023-02-15T23:42:44.427Z,98172.84
2023-02-15T23:45:22.093Z,98166.91
2023-02-15T23:48:09.806Z,98172.06
2023-02-15T23:50:39.138Z,98158.44
2023-02-15T23:53:06.673Z,98162.63
2023-02-15T23:55:36.437Z,98171.78
2023-02-15T23:58:05.016Z,98169.06
